createdAt,value
2023-01-08T00:00:10.256Z,4.47
2023-01-08T00:00:47.130Z,4.57
2023-01-08T00:01:13.468Z,4.57
2023-01-08T00:01:44.186Z,4.49
2023-01-08T00:02:14.289Z,4.49
2023-01-08T00:02:45.373Z,4.49
2023-01-08T00:03:16.093Z,4.49
2023-01-08T00:04:18.332Z,4.49
2023-01-08T00:04:49.100Z,4.49
2023-01-08T00:05:37.248Z,4.59
2023-01-08T00:05:52.320Z,4.59
2023-01-08T00:06:24.168Z,4.59
2023-01-08T00:06:54.887Z,4.59
2023-01-08T00:07:40.938Z,4.59
2023-01-08T00:07:54.720Z,4.59
2023-01-08T00:08:26.003Z,4.59
2023-01-08T00:08:56.812Z,4.49
2023-01-08T00:09:27.368Z,4.49
2023-01-08T00:09:59.180Z,4.49
2023-01-08T00:10:29.948Z,4.49
2023-01-08T00:11:03.832Z,4.66
2023-01-08T00:11:33.185Z,4.57
2023-01-08T00:12:06.404Z,4.57
2023-01-08T00:12:34.816Z,4.57
2023-01-08T00:13:06.525Z,4.57
2023-01-08T00:13:35.611Z,4.57
2023-01-08T00:14:07.047Z,4.47
2023-01-08T00:14:38.567Z,4.47
2023-01-08T00:15:09.802Z,4.47
2023-01-08T00:15:39.721Z,4.47
2023-01-08T00:16:27.592Z,4.57
2023-01-08T00:16:43.939Z,4.57
2023-01-08T00:17:14.802Z,4.57
2023-01-08T00:17:45.095Z,4.57
2023-01-08T00:18:15.871Z,4.57
2023-01-08T00:18:46.015Z,4.57
2023-01-08T00:19:16.849Z,4.57
2023-01-08T00:19:48.013Z,4.57
2023-01-08T00:20:19.077Z,4.57
2023-01-08T00:20:50.027Z,4.57
2023-01-08T00:21:21.099Z,4.57
2023-01-08T00:21:54.172Z,4.57
2023-01-08T00:22:26.293Z,4.57
2023-01-08T00:22:55.477Z,4.57
2023-01-08T00:23:26.183Z,4.57
2023-01-08T00:23:55.940Z,4.57
2023-01-08T00:24:27.045Z,4.57
2023-01-08T00:24:58.851Z,4.66
2023-01-08T00:25:29.983Z,4.66
2023-01-08T00:26:00.477Z,4.66
2023-01-08T00:26:33.540Z,4.66
2023-01-08T00:27:03.708Z,4.66
2023-01-08T00:27:35.498Z,4.66
2023-01-08T00:28:05.650Z,4.66
2023-01-08T00:28:36.792Z,4.57
2023-01-08T00:29:06.155Z,4.57
2023-01-08T00:29:36.644Z,4.57
2023-01-08T00:30:10.038Z,4.57
2023-01-08T00:30:38.925Z,4.49
2023-01-08T00:31:10.305Z,4.49
2023-01-08T00:31:41.747Z,4.66
2023-01-08T00:32:13.928Z,4.66
2023-01-08T00:32:46.207Z,4.66
2023-01-08T00:33:16.942Z,4.66
2023-01-08T00:33:45.261Z,4.66
2023-01-08T00:34:16.384Z,4.66
2023-01-08T00:34:46.588Z,4.66
2023-01-08T00:35:18.321Z,4.66
2023-01-08T00:35:49.107Z,4.66
2023-01-08T00:36:20.124Z,4.66
2023-01-08T00:36:51.048Z,4.66
2023-01-08T00:37:21.900Z,4.66
2023-01-08T00:37:56.639Z,4.66
2023-01-08T00:38:25.401Z,4.66
2023-01-08T00:38:56.149Z,4.66
2023-01-08T00:39:27.082Z,4.66
2023-01-08T00:39:57.902Z,4.66
2023-01-08T00:40:29.058Z,4.66
2023-01-08T00:40:58.645Z,4.66
2023-01-08T00:41:30.614Z,4.73
2023-01-08T00:42:00.666Z,4.57
2023-01-08T00:42:32.149Z,4.57
2023-01-08T00:43:04.322Z,4.57
2023-01-08T00:43:34.650Z,4.66
2023-01-08T00:44:04.293Z,4.66
2023-01-08T00:44:35.558Z,4.66
2023-01-08T00:45:07.530Z,4.66
2023-01-08T00:45:37.844Z,4.66
2023-01-08T00:46:08.646Z,4.66
2023-01-08T00:47:12.008Z,4.66
2023-01-08T00:47:43.007Z,4.66
2023-01-08T00:48:12.562Z,4.59
2023-01-08T00:48:43.187Z,4.76
2023-01-08T00:49:15.681Z,4.68
2023-01-08T00:49:48.966Z,4.68
2023-01-08T00:50:18.716Z,4.86
2023-01-08T00:50:49.318Z,4.68
2023-01-08T00:51:18.721Z,4.68
2023-01-08T00:51:51.889Z,4.68
2023-01-08T00:52:20.430Z,4.78
2023-01-08T00:52:51.462Z,4.78
2023-01-08T00:53:23.547Z,4.78
2023-01-08T00:53:54.051Z,4.78
2023-01-08T00:55:00.676Z,4.78
2023-01-08T00:55:13.011Z,4.70
2023-01-08T00:55:27.457Z,4.70
2023-01-08T00:55:58.129Z,4.70
2023-01-08T00:57:00.099Z,4.80
2023-01-08T00:57:30.678Z,4.80
2023-01-08T00:58:19.441Z,4.98
2023-01-08T00:58:33.089Z,4.98
2023-01-08T00:59:03.668Z,4.80
2023-01-08T00:59:35.325Z,4.80
2023-01-08T01:00:12.645Z,4.80
2023-01-08T01:00:37.673Z,4.80
2023-01-08T01:01:07.883Z,4.90
2023-01-08T01:01:39.116Z,4.90
2023-01-08T01:02:10.327Z,4.90
2023-01-08T01:02:40.684Z,4.90
2023-01-08T01:03:11.568Z,5.08
2023-01-08T01:03:42.621Z,5.08
2023-01-08T01:04:13.634Z,5.08
2023-01-08T01:04:46.395Z,4.98
2023-01-08T01:05:27.440Z,4.80
2023-01-08T01:05:48.006Z,4.80
2023-01-08T01:06:17.955Z,4.80
2023-01-08T01:06:52.591Z,4.98
2023-01-08T01:07:20.138Z,4.80
2023-01-08T01:07:50.810Z,4.80
2023-01-08T01:08:21.689Z,4.90
2023-01-08T01:08:57.437Z,4.90
2023-01-08T01:10:51.149Z,4.90
2023-01-08T01:10:56.849Z,4.90
2023-01-08T01:13:40.969Z,4.90
2023-01-08T01:14:11.825Z,4.90
2023-01-08T01:14:38.795Z,4.90
2023-01-08T01:17:18.124Z,4.90
2023-01-08T01:17:49.037Z,5.00
2023-01-08T01:18:13.873Z,5.00
2023-01-08T01:18:45.216Z,5.00
2023-01-08T01:19:13.601Z,5.00
2023-01-08T01:19:47.048Z,5.00
2023-01-08T01:20:15.920Z,5.00
2023-01-08T01:20:45.974Z,5.00
2023-01-08T01:21:23.778Z,5.00
2023-01-08T01:21:51.709Z,4.90
2023-01-08T01:22:20.274Z,5.08
2023-01-08T01:22:54.014Z,5.08
2023-01-08T01:23:22.227Z,5.08
2023-01-08T01:23:52.518Z,4.90
2023-01-08T01:24:23.786Z,4.90
2023-01-08T01:24:54.252Z,4.90
2023-01-08T01:25:25.406Z,4.90
2023-01-08T01:26:31.217Z,4.90
2023-01-08T01:26:58.355Z,4.90
2023-01-08T01:27:31.734Z,4.90
2023-01-08T01:28:02.168Z,4.90
2023-01-08T01:29:08.262Z,4.90
2023-01-08T01:29:35.662Z,4.90
2023-01-08T01:30:23.369Z,4.90
2023-01-08T01:30:35.383Z,4.90
2023-01-08T01:31:06.392Z,5.08
2023-01-08T01:31:37.291Z,5.08
2023-01-08T01:32:08.253Z,4.90
2023-01-08T01:32:39.800Z,5.08
2023-01-08T01:33:11.565Z,4.90
2023-01-08T01:33:42.042Z,5.08
2023-01-08T01:34:13.571Z,5.08
2023-01-08T01:34:43.525Z,4.90
2023-01-08T01:35:15.734Z,4.90
2023-01-08T01:36:16.668Z,4.90
2023-01-08T01:36:47.200Z,4.90
2023-01-08T01:37:18.729Z,4.90
2023-01-08T01:37:57.104Z,4.90
2023-01-08T01:38:23.006Z,4.90
2023-01-08T01:38:50.666Z,4.90
2023-01-08T01:39:25.192Z,4.90
2023-01-08T01:39:56.425Z,4.90
2023-01-08T01:40:33.447Z,4.90
2023-01-08T01:40:57.177Z,4.90
2023-01-08T01:41:27.125Z,4.90
2023-01-08T01:41:57.839Z,4.90
2023-01-08T01:42:28.087Z,4.90
2023-01-08T01:42:59.043Z,5.08
2023-01-08T01:43:30.024Z,5.08
2023-01-08T01:44:01.602Z,5.08
2023-01-08T01:44:32.187Z,5.08
2023-01-08T01:45:06.460Z,4.98
2023-01-08T01:45:36.882Z,4.98
2023-01-08T01:46:07.796Z,4.98
2023-01-08T01:46:36.661Z,4.98
2023-01-08T01:47:07.733Z,4.98
2023-01-08T01:47:38.086Z,4.98
2023-01-08T01:48:18.185Z,4.98
2023-01-08T01:48:40.048Z,4.98
2023-01-08T01:49:12.335Z,4.98
2023-01-08T01:49:44.376Z,4.98
2023-01-08T01:50:14.861Z,4.88
2023-01-08T01:50:45.207Z,4.88
2023-01-08T01:51:15.572Z,4.88
2023-01-08T01:51:46.570Z,4.88
2023-01-08T01:52:17.125Z,4.88
2023-01-08T01:52:48.071Z,4.98
2023-01-08T01:53:22.199Z,4.98
2023-01-08T01:53:50.223Z,4.98
2023-01-08T01:54:21.671Z,4.98
2023-01-08T01:54:53.801Z,4.98
2023-01-08T01:55:25.085Z,4.98
2023-01-08T01:56:25.619Z,4.98
2023-01-08T01:56:56.538Z,4.98
2023-01-08T01:57:28.120Z,4.98
2023-01-08T01:57:58.280Z,4.98
2023-01-08T01:58:30.307Z,4.98
2023-01-08T01:59:00.714Z,4.98
2023-01-08T01:59:31.314Z,4.98
2023-01-08T02:00:07.554Z,4.98
2023-01-08T02:00:33.300Z,4.98
2023-01-08T02:01:07.741Z,4.98
2023-01-08T02:01:35.497Z,4.98
2023-01-08T02:02:06.764Z,4.98
2023-01-08T02:02:38.991Z,5.15
2023-01-08T02:03:08.739Z,5.15
2023-01-08T02:03:40.016Z,4.98
2023-01-08T02:04:13.463Z,4.98
2023-01-08T02:04:41.912Z,4.98
2023-01-08T02:05:40.597Z,4.98
2023-01-08T02:05:46.269Z,5.15
2023-01-08T02:06:17.903Z,4.98
2023-01-08T02:06:46.217Z,4.98
2023-01-08T02:07:17.123Z,4.98
2023-01-08T02:08:12.614Z,5.08
2023-01-08T02:08:18.437Z,5.08
2023-01-08T02:08:50.054Z,5.08
2023-01-08T02:09:57.359Z,5.08
2023-01-08T02:10:10.118Z,5.08
2023-01-08T02:10:22.950Z,5.08
2023-01-08T02:10:54.673Z,5.08
2023-01-08T02:11:26.273Z,5.08
2023-01-08T02:11:56.228Z,5.08
2023-01-08T02:12:27.071Z,5.08
2023-01-08T02:12:57.476Z,5.08
2023-01-08T02:13:28.218Z,5.08
2023-01-08T02:14:00.855Z,4.90
2023-01-08T02:14:30.079Z,5.08
2023-01-08T02:15:01.982Z,5.08
2023-01-08T02:15:50.600Z,5.08
2023-01-08T02:16:04.530Z,5.08
2023-01-08T02:16:35.564Z,5.08
2023-01-08T02:17:06.585Z,5.08
2023-01-08T02:17:37.548Z,5.08
2023-01-08T02:18:07.667Z,5.08
2023-01-08T02:18:38.768Z,5.08
2023-01-08T02:19:09.521Z,5.08
2023-01-08T02:19:40.368Z,5.08
2023-01-08T02:20:11.459Z,5.08
2023-01-08T02:20:42.418Z,5.08
2023-01-08T02:21:16.220Z,5.08
2023-01-08T02:21:46.129Z,5.08
2023-01-08T02:22:16.401Z,5.08
2023-01-08T02:22:47.173Z,5.08
2023-01-08T02:23:18.050Z,5.08
2023-01-08T02:23:48.867Z,4.98
2023-01-08T02:24:20.332Z,4.98
2023-01-08T02:24:51.035Z,4.98
2023-01-08T02:25:24.775Z,5.15
2023-01-08T02:25:54.279Z,4.98
2023-01-08T02:26:29.231Z,4.98
2023-01-08T02:26:56.207Z,5.15
2023-01-08T02:27:26.567Z,5.15
2023-01-08T02:27:58.345Z,5.15
2023-01-08T02:28:28.085Z,5.06
2023-01-08T02:29:03.419Z,5.06
2023-01-08T02:29:47.185Z,5.06
2023-01-08T02:30:19.478Z,5.06
2023-01-08T02:30:32.724Z,5.06
2023-01-08T02:31:26.029Z,5.06
2023-01-08T02:32:03.145Z,5.06
2023-01-08T02:32:36.344Z,5.06
2023-01-08T02:33:07.104Z,5.06
2023-01-08T02:33:41.145Z,5.06
2023-01-08T02:34:13.992Z,4.96
2023-01-08T02:34:40.170Z,4.96
2023-01-08T02:35:11.043Z,4.96
2023-01-08T02:35:42.544Z,5.12
2023-01-08T02:36:59.889Z,4.96
2023-01-08T02:37:47.813Z,4.96
2023-01-08T02:38:07.437Z,5.12
2023-01-08T02:38:17.065Z,5.12
2023-01-08T02:38:47.882Z,5.12
2023-01-08T02:39:18.363Z,5.12
2023-01-08T02:39:49.874Z,5.12
2023-01-08T02:40:22.261Z,5.12
2023-01-08T02:40:51.506Z,5.12
2023-01-08T02:41:22.443Z,5.12
2023-01-08T02:41:53.541Z,5.12
2023-01-08T02:42:25.773Z,5.12
2023-01-08T02:42:57.367Z,5.12
2023-01-08T02:43:27.218Z,5.02
2023-01-08T02:43:57.583Z,5.02
2023-01-08T02:44:28.488Z,5.02
2023-01-08T02:45:18.193Z,5.02
2023-01-08T02:45:30.617Z,5.02
2023-01-08T02:46:18.871Z,5.02
2023-01-08T02:46:32.586Z,5.02
2023-01-08T02:47:04.467Z,5.02
2023-01-08T02:47:36.281Z,5.02
2023-01-08T02:48:07.371Z,5.02
2023-01-08T02:48:37.393Z,5.02
2023-01-08T02:49:07.787Z,5.02
2023-01-08T02:49:38.014Z,5.12
2023-01-08T02:50:09.479Z,5.12
2023-01-08T02:50:40.293Z,5.12
2023-01-08T02:51:10.973Z,5.12
2023-01-08T02:51:42.760Z,5.12
2023-01-08T02:52:44.220Z,5.12
2023-01-08T02:53:17.005Z,5.02
2023-01-08T02:53:47.239Z,5.02
2023-01-08T02:54:17.481Z,5.02
2023-01-08T02:54:48.056Z,5.02
2023-01-08T02:55:50.609Z,5.02
2023-01-08T02:56:21.502Z,5.02
2023-01-08T02:56:52.460Z,5.02
2023-01-08T02:57:23.644Z,5.02
2023-01-08T02:57:56.182Z,5.02
2023-01-08T02:58:27.534Z,5.02
2023-01-08T02:58:56.907Z,5.02
2023-01-08T02:59:27.129Z,5.02
2023-01-08T02:59:57.883Z,5.02
2023-01-08T03:00:29.256Z,5.02
2023-01-08T03:01:00.561Z,5.02
2023-01-08T03:01:37.963Z,5.02
2023-01-08T03:02:02.279Z,5.02
2023-01-08T03:03:09.354Z,5.02
2023-01-08T03:03:35.265Z,5.02
2023-01-08T03:04:38.326Z,5.02
2023-01-08T03:05:10.461Z,5.02
2023-01-08T03:05:40.666Z,5.02
2023-01-08T03:06:11.005Z,5.02
2023-01-08T03:06:45.848Z,5.02
2023-01-08T03:07:12.591Z,5.02
2023-01-08T03:07:43.570Z,5.02
2023-01-08T03:08:14.687Z,5.02
2023-01-08T03:08:45.630Z,5.02
2023-01-08T03:09:16.431Z,5.02
2023-01-08T03:09:49.512Z,5.02
2023-01-08T03:10:23.429Z,5.02
2023-01-08T03:11:06.569Z,5.02
2023-01-08T03:11:45.278Z,5.02
2023-01-08T03:12:22.290Z,5.02
2023-01-08T03:12:53.362Z,5.02
2023-01-08T03:13:24.569Z,5.02
2023-01-08T03:13:55.271Z,5.02
2023-01-08T03:14:26.376Z,5.02
2023-01-08T03:14:58.848Z,5.19
2023-01-08T03:15:29.612Z,5.19
2023-01-08T03:16:00.179Z,5.19
2023-01-08T03:16:30.584Z,5.19
2023-01-08T03:17:01.782Z,5.19
2023-01-08T03:17:32.202Z,5.19
2023-01-08T03:18:03.732Z,5.02
2023-01-08T03:18:34.310Z,5.02
2023-01-08T03:19:07.353Z,5.02
2023-01-08T03:19:36.490Z,5.02
2023-01-08T03:20:09.981Z,5.12
2023-01-08T03:20:39.623Z,5.12
2023-01-08T03:21:20.517Z,5.12
2023-01-08T03:21:40.380Z,5.12
2023-01-08T03:22:12.127Z,5.12
2023-01-08T03:22:42.989Z,5.12
2023-01-08T03:23:13.802Z,5.22
2023-01-08T03:23:44.268Z,5.22
2023-01-08T03:24:46.800Z,5.22
2023-01-08T03:25:20.195Z,5.22
2023-01-08T03:25:50.286Z,5.22
2023-01-08T03:26:20.360Z,5.12
2023-01-08T03:26:51.874Z,5.12
2023-01-08T03:27:21.639Z,5.12
2023-01-08T03:27:52.390Z,5.29
2023-01-08T03:28:24.032Z,5.29
2023-01-08T03:28:54.484Z,5.29
2023-01-08T03:29:25.689Z,5.29
2023-01-08T03:29:56.199Z,5.29
2023-01-08T03:30:28.854Z,5.12
2023-01-08T03:31:00.017Z,5.12
2023-01-08T03:31:30.088Z,5.12
2023-01-08T03:32:01.058Z,5.22
2023-01-08T03:32:31.389Z,5.22
2023-01-08T03:33:02.192Z,5.22
2023-01-08T03:33:33.930Z,5.38
2023-01-08T03:34:04.849Z,5.38
2023-01-08T03:34:35.330Z,5.38
2023-01-08T03:35:07.202Z,5.38
2023-01-08T03:36:09.970Z,5.38
2023-01-08T03:36:40.529Z,5.38
2023-01-08T03:37:10.738Z,5.38
2023-01-08T03:37:41.349Z,5.38
2023-01-08T03:38:12.511Z,5.38
2023-01-08T03:38:43.728Z,5.38
2023-01-08T03:39:14.826Z,5.38
2023-01-08T03:39:45.427Z,5.38
2023-01-08T03:40:17.071Z,5.38
2023-01-08T03:40:47.603Z,5.38
2023-01-08T03:41:20.528Z,5.38
2023-01-08T03:41:49.060Z,5.38
2023-01-08T03:42:20.605Z,5.38
2023-01-08T03:42:51.752Z,5.38
2023-01-08T03:43:23.226Z,5.38
2023-01-08T03:43:53.392Z,5.38
2023-01-08T03:44:24.907Z,5.38
2023-01-08T03:44:55.511Z,5.38
2023-01-08T03:45:26.627Z,5.38
2023-01-08T03:45:57.231Z,5.38
2023-01-08T03:46:29.836Z,5.38
2023-01-08T03:47:00.386Z,5.38
2023-01-08T03:47:30.754Z,5.38
2023-01-08T03:48:02.073Z,5.38
2023-01-08T03:48:32.334Z,5.38
2023-01-08T03:49:03.771Z,5.38
2023-01-08T03:49:39.819Z,5.38
2023-01-08T03:50:06.696Z,5.38
2023-01-08T03:50:36.138Z,5.38
2023-01-08T03:51:08.475Z,5.38
2023-01-08T03:51:40.145Z,5.38
2023-01-08T03:52:10.604Z,5.38
2023-01-08T03:53:12.031Z,5.38
2023-01-08T03:53:42.498Z,5.38
2023-01-08T03:54:38.547Z,5.38
2023-01-08T03:54:44.846Z,5.38
2023-01-08T03:55:25.209Z,5.38
2023-01-08T03:55:46.352Z,5.38
2023-01-08T03:56:17.483Z,5.22
2023-01-08T03:56:50.802Z,5.22
2023-01-08T03:57:23.461Z,5.38
2023-01-08T03:57:51.138Z,5.22
2023-01-08T03:58:22.077Z,5.38
2023-01-08T03:58:52.736Z,5.38
2023-01-08T03:59:24.560Z,5.38
2023-01-08T03:59:55.426Z,5.38
2023-01-08T04:00:26.875Z,5.38
2023-01-08T04:00:56.776Z,5.38
2023-01-08T04:01:27.415Z,5.38
2023-01-08T04:02:00.942Z,5.38
2023-01-08T04:02:31.053Z,5.38
2023-01-08T04:03:01.247Z,5.38
2023-01-08T04:03:31.591Z,5.38
2023-01-08T04:04:02.603Z,5.38
2023-01-08T04:04:34.007Z,5.38
2023-01-08T04:05:05.451Z,5.38
2023-01-08T04:05:35.627Z,5.38
2023-01-08T04:06:07.478Z,5.38
2023-01-08T04:06:37.937Z,5.38
2023-01-08T04:07:10.388Z,5.38
2023-01-08T04:07:41.117Z,5.38
2023-01-08T04:08:11.602Z,5.38
2023-01-08T04:08:41.635Z,5.38
2023-01-08T04:09:34.185Z,5.38
2023-01-08T04:09:44.121Z,5.38
2023-01-08T04:10:15.658Z,5.38
2023-01-08T04:10:46.498Z,5.38
2023-01-08T04:11:16.966Z,5.38
2023-01-08T04:11:48.526Z,5.38
2023-01-08T04:12:19.718Z,5.38
2023-01-08T04:12:51.269Z,5.38
2023-01-08T04:13:21.426Z,5.38
2023-01-08T04:13:52.091Z,5.38
2023-01-08T04:14:22.379Z,5.38
2023-01-08T04:14:54.927Z,5.38
2023-01-08T04:15:25.691Z,5.38
2023-01-08T04:15:56.425Z,5.38
2023-01-08T04:16:26.846Z,5.38
2023-01-08T04:16:57.693Z,5.38
2023-01-08T04:17:29.611Z,5.38
2023-01-08T04:18:01.421Z,5.38
2023-01-08T04:18:31.327Z,5.38
2023-01-08T04:19:02.439Z,5.38
2023-01-08T04:19:32.440Z,5.38
2023-01-08T04:20:04.365Z,5.38
2023-01-08T04:21:05.879Z,5.48
2023-01-08T04:21:36.445Z,5.48
2023-01-08T04:22:07.387Z,5.32
2023-01-08T04:22:39.781Z,5.32
2023-01-08T04:23:11.284Z,5.32
2023-01-08T04:23:40.528Z,5.32
2023-01-08T04:24:12.138Z,5.32
2023-01-08T04:24:42.393Z,5.32
2023-01-08T04:25:14.032Z,5.32
2023-01-08T04:25:45.338Z,5.32
2023-01-08T04:26:15.584Z,5.32
2023-01-08T04:26:47.558Z,5.32
2023-01-08T04:27:17.656Z,5.32
2023-01-08T04:27:50.168Z,5.32
2023-01-08T04:28:21.739Z,5.32
2023-01-08T04:28:51.766Z,5.32
2023-01-08T04:29:21.936Z,5.32
2023-01-08T04:29:52.666Z,5.32
2023-01-08T04:30:24.366Z,5.32
2023-01-08T04:30:55.229Z,5.32
2023-01-08T04:31:25.918Z,5.42
2023-01-08T04:31:56.845Z,5.42
2023-01-08T04:32:27.676Z,5.42
2023-01-08T04:33:00.976Z,5.42
2023-01-08T04:33:31.031Z,5.42
2023-01-08T04:34:02.110Z,5.42
2023-01-08T04:34:31.972Z,5.42
2023-01-08T04:35:03.513Z,5.42
2023-01-08T04:35:33.872Z,5.42
2023-01-08T04:36:04.916Z,5.42
2023-01-08T04:36:35.552Z,5.42
2023-01-08T04:37:06.812Z,5.32
2023-01-08T04:37:37.699Z,5.32
2023-01-08T04:38:09.854Z,5.32
2023-01-08T04:38:41.296Z,5.32
2023-01-08T04:39:11.548Z,5.32
2023-01-08T04:39:41.660Z,5.32
2023-01-08T04:40:13.119Z,5.32
2023-01-08T04:40:43.851Z,5.32
2023-01-08T04:41:15.002Z,5.48
2023-01-08T04:41:46.123Z,5.38
2023-01-08T04:42:16.866Z,5.38
2023-01-08T04:42:47.871Z,5.38
2023-01-08T04:43:18.512Z,5.38
2023-01-08T04:43:51.640Z,5.38
2023-01-08T04:44:21.832Z,5.38
2023-01-08T04:44:52.438Z,5.38
2023-01-08T04:45:24.324Z,5.38
2023-01-08T04:45:54.016Z,5.38
2023-01-08T04:46:25.667Z,5.38
2023-01-08T04:46:55.356Z,5.38
2023-01-08T04:47:27.573Z,5.38
2023-01-08T04:47:57.947Z,5.38
2023-01-08T04:48:28.554Z,5.38
2023-01-08T04:49:02.411Z,5.38
2023-01-08T04:49:48.373Z,5.48
2023-01-08T04:50:02.526Z,5.48
2023-01-08T04:50:32.691Z,5.48
2023-01-08T04:51:04.089Z,5.48
2023-01-08T04:51:34.715Z,5.48
2023-01-08T04:52:06.146Z,5.48
2023-01-08T04:52:39.730Z,5.48
2023-01-08T04:53:08.363Z,5.48
2023-01-08T04:53:56.053Z,5.48
2023-01-08T04:54:11.290Z,5.48
2023-01-08T04:54:41.695Z,5.58
2023-01-08T04:55:12.501Z,5.58
2023-01-08T04:55:42.407Z,5.58
2023-01-08T04:56:14.149Z,5.58
2023-01-08T04:56:45.386Z,5.58
2023-01-08T04:57:15.626Z,5.58
2023-01-08T04:57:46.847Z,5.68
2023-01-08T04:58:35.051Z,5.68
2023-01-08T04:58:48.492Z,5.68
2023-01-08T04:59:38.213Z,5.68
2023-01-08T05:00:23.033Z,5.68
2023-01-08T05:00:52.659Z,5.68
2023-01-08T05:01:55.785Z,5.68
2023-01-08T05:02:25.955Z,5.68
2023-01-08T05:02:56.843Z,5.68
2023-01-08T05:03:27.510Z,5.68
2023-01-08T05:03:58.862Z,5.68
2023-01-08T05:04:31.056Z,5.68
2023-01-08T05:05:01.662Z,5.68
2023-01-08T05:05:32.611Z,5.68
2023-01-08T05:06:03.807Z,5.68
2023-01-08T05:06:34.051Z,5.68
2023-01-08T05:07:22.421Z,5.68
2023-01-08T05:07:35.535Z,5.68
2023-01-08T05:08:07.159Z,5.68
2023-01-08T05:08:37.740Z,5.68
2023-01-08T05:09:10.254Z,5.68
2023-01-08T05:09:41.021Z,5.68
2023-01-08T05:10:12.627Z,5.68
2023-01-08T05:10:42.987Z,5.68
2023-01-08T05:11:16.316Z,5.68
2023-01-08T05:11:44.044Z,5.68
2023-01-08T05:12:14.981Z,5.68
2023-01-08T05:12:45.484Z,5.68
2023-01-08T05:13:16.650Z,5.68
2023-01-08T05:13:48.344Z,5.68
2023-01-08T05:14:20.189Z,5.68
2023-01-08T05:14:51.168Z,5.68
2023-01-08T05:15:22.362Z,5.68
2023-01-08T05:15:53.914Z,5.68
2023-01-08T05:16:22.790Z,5.68
2023-01-08T05:16:54.136Z,5.68
2023-01-08T05:17:25.001Z,5.51
2023-01-08T05:17:56.355Z,5.68
2023-01-08T05:18:26.849Z,5.78
2023-01-08T05:18:59.422Z,5.78
2023-01-08T05:19:30.110Z,5.61
2023-01-08T05:20:00.944Z,5.61
2023-01-08T05:20:30.864Z,5.61
2023-01-08T05:21:03.143Z,5.61
2023-01-08T05:21:32.792Z,5.61
2023-01-08T05:22:04.246Z,5.61
2023-01-08T05:22:34.901Z,5.71
2023-01-08T05:23:06.088Z,5.71
2023-01-08T05:23:36.664Z,5.71
2023-01-08T05:24:11.588Z,5.88
2023-01-08T05:24:38.826Z,5.78
2023-01-08T05:25:10.238Z,5.61
2023-01-08T05:25:40.634Z,5.61
2023-01-08T05:26:11.747Z,5.78
2023-01-08T05:26:42.793Z,5.78
2023-01-08T05:27:14.110Z,5.78
2023-01-08T05:27:45.001Z,5.78
2023-01-08T05:28:15.691Z,5.78
2023-01-08T05:28:46.701Z,5.78
2023-01-08T05:29:21.150Z,5.78
2023-01-08T05:29:51.276Z,5.78
2023-01-08T05:30:27.855Z,5.78
2023-01-08T05:30:53.873Z,5.78
2023-01-08T05:31:24.282Z,5.78
2023-01-08T05:31:54.522Z,5.78
2023-01-08T05:32:25.104Z,5.68
2023-01-08T05:32:55.993Z,5.68
2023-01-08T05:33:25.876Z,5.68
2023-01-08T05:33:56.955Z,5.51
2023-01-08T05:34:27.794Z,5.51
2023-01-08T05:35:00.366Z,5.51
2023-01-08T05:35:30.104Z,5.51
2023-01-08T05:36:02.205Z,5.61
2023-01-08T05:36:33.142Z,5.61
2023-01-08T05:37:03.579Z,5.61
2023-01-08T05:37:34.240Z,5.61
2023-01-08T05:38:06.021Z,5.61
2023-01-08T05:38:35.815Z,5.61
2023-01-08T05:39:07.540Z,5.61
2023-01-08T05:39:55.120Z,5.61
2023-01-08T05:40:10.195Z,5.61
2023-01-08T05:40:39.797Z,5.61
2023-01-08T05:41:10.684Z,5.61
2023-01-08T05:41:41.822Z,5.61
2023-01-08T05:42:13.154Z,5.61
2023-01-08T05:42:44.499Z,5.61
2023-01-08T05:43:15.206Z,5.61
2023-01-08T05:43:46.001Z,5.51
2023-01-08T05:44:16.850Z,5.51
2023-01-08T05:44:47.832Z,5.61
2023-01-08T05:45:19.367Z,5.61
2023-01-08T05:45:50.162Z,5.61
2023-01-08T05:46:21.127Z,5.61
2023-01-08T05:46:52.021Z,5.61
2023-01-08T05:47:22.942Z,5.61
2023-01-08T05:47:54.139Z,5.61
2023-01-08T05:48:25.315Z,5.61
2023-01-08T05:48:55.962Z,5.61
2023-01-08T05:49:42.959Z,5.61
2023-01-08T05:49:58.289Z,5.61
2023-01-08T05:50:29.906Z,5.61
2023-01-08T05:50:59.683Z,5.61
2023-01-08T05:51:31.282Z,5.51
2023-01-08T05:52:01.824Z,5.51
2023-01-08T05:52:32.646Z,5.51
2023-01-08T05:53:04.715Z,5.51
2023-01-08T05:53:35.485Z,5.51
2023-01-08T05:54:06.739Z,5.51
2023-01-08T05:54:37.045Z,5.51
2023-01-08T05:55:08.855Z,5.51
2023-01-08T05:55:39.015Z,5.51
2023-01-08T05:56:11.017Z,5.51
2023-01-08T05:56:40.924Z,5.51
2023-01-08T05:57:18.661Z,5.51
2023-01-08T05:57:44.699Z,5.51
2023-01-08T05:58:14.471Z,5.51
2023-01-08T05:58:45.323Z,5.51
2023-01-08T05:59:16.194Z,5.51
2023-01-08T05:59:49.170Z,5.51
2023-01-08T06:00:19.947Z,5.51
2023-01-08T06:00:49.023Z,5.51
2023-01-08T06:01:20.311Z,5.51
2023-01-08T06:01:50.992Z,5.51
2023-01-08T06:02:23.213Z,5.51
2023-01-08T06:02:53.084Z,5.51
2023-01-08T06:03:24.103Z,5.51
2023-01-08T06:03:55.286Z,5.51
2023-01-08T06:04:25.894Z,5.51
2023-01-08T06:04:56.981Z,5.51
2023-01-08T06:05:29.182Z,5.51
2023-01-08T06:05:59.958Z,5.51
2023-01-08T06:06:29.854Z,5.51
2023-01-08T06:07:01.085Z,5.51
2023-01-08T06:07:31.713Z,5.51
2023-01-08T06:08:12.562Z,5.68
2023-01-08T06:08:34.063Z,5.58
2023-01-08T06:09:06.938Z,5.58
2023-01-08T06:09:35.989Z,5.58
2023-01-08T06:10:08.725Z,5.58
2023-01-08T06:10:39.535Z,5.58
2023-01-08T06:11:09.843Z,5.58
2023-01-08T06:11:40.055Z,5.58
2023-01-08T06:12:31.965Z,5.75
2023-01-08T06:12:42.033Z,5.75
2023-01-08T06:13:14.506Z,5.75
2023-01-08T06:13:44.324Z,5.75
2023-01-08T06:14:15.091Z,5.75
2023-01-08T06:14:45.800Z,5.65
2023-01-08T06:15:21.321Z,5.65
2023-01-08T06:15:49.820Z,5.65
2023-01-08T06:16:20.167Z,5.65
2023-01-08T06:16:57.986Z,5.65
2023-01-08T06:17:20.852Z,5.65
2023-01-08T06:17:51.896Z,5.65
2023-01-08T06:18:23.374Z,5.65
2023-01-08T06:18:54.441Z,5.65
2023-01-08T06:19:25.714Z,5.65
2023-01-08T06:20:21.958Z,5.65
2023-01-08T06:20:27.311Z,5.65
2023-01-08T06:20:58.544Z,5.65
2023-01-08T06:21:29.162Z,5.65
2023-01-08T06:22:00.502Z,5.65
2023-01-08T06:22:32.952Z,5.65
2023-01-08T06:23:03.528Z,5.65
2023-01-08T06:23:34.603Z,5.65
2023-01-08T06:24:05.200Z,5.65
2023-01-08T06:24:35.662Z,5.65
2023-01-08T06:25:06.907Z,5.65
2023-01-08T06:25:36.868Z,5.65
2023-01-08T06:26:07.875Z,5.65
2023-01-08T06:26:39.087Z,5.65
2023-01-08T06:27:09.855Z,5.65
2023-01-08T06:27:41.168Z,5.65
2023-01-08T06:28:13.625Z,5.65
2023-01-08T06:28:44.999Z,5.65
2023-01-08T06:29:14.794Z,5.65
2023-01-08T06:29:45.586Z,5.65
2023-01-08T06:30:17.424Z,5.55
2023-01-08T06:30:48.070Z,5.55
2023-01-08T06:31:18.273Z,5.55
2023-01-08T06:31:49.200Z,5.55
2023-01-08T06:32:20.378Z,5.71
2023-01-08T06:32:54.262Z,5.71
2023-01-08T06:33:24.009Z,5.71
2023-01-08T06:33:55.599Z,5.71
2023-01-08T06:34:25.093Z,5.71
2023-01-08T06:35:14.667Z,5.71
2023-01-08T06:35:26.668Z,5.71
2023-01-08T06:36:17.401Z,5.71
2023-01-08T06:36:28.101Z,5.71
2023-01-08T06:36:59.427Z,5.71
2023-01-08T06:37:34.793Z,5.71
2023-01-08T06:38:01.324Z,5.71
2023-01-08T06:38:33.553Z,5.61
2023-01-08T06:39:05.151Z,5.61
2023-01-08T06:39:35.804Z,5.77
2023-01-08T06:40:06.800Z,5.77
2023-01-08T06:40:36.444Z,5.77
2023-01-08T06:41:07.463Z,5.77
2023-01-08T06:41:37.925Z,5.77
2023-01-08T06:42:26.248Z,5.77
2023-01-08T06:42:47.097Z,5.67
2023-01-08T06:43:10.969Z,5.67
2023-01-08T06:43:43.597Z,5.83
2023-01-08T06:44:14.552Z,5.83
2023-01-08T06:44:45.481Z,5.83
2023-01-08T06:45:18.727Z,5.83
2023-01-08T06:45:58.631Z,5.83
2023-01-08T06:46:17.099Z,5.57
2023-01-08T06:46:48.149Z,5.73
2023-01-08T06:47:19.384Z,5.73
2023-01-08T06:47:50.824Z,5.73
2023-01-08T06:48:21.245Z,5.73
2023-01-08T06:48:53.124Z,5.73
2023-01-08T06:49:24.452Z,5.73
2023-01-08T06:49:54.564Z,5.73
2023-01-08T06:50:26.169Z,5.73
2023-01-08T06:50:56.346Z,5.73
2023-01-08T06:51:26.973Z,5.73
2023-01-08T06:51:58.046Z,5.63
2023-01-08T06:52:30.324Z,5.80
2023-01-08T06:53:00.177Z,5.63
2023-01-08T06:53:49.777Z,5.63
2023-01-08T06:54:02.993Z,5.63
2023-01-08T06:54:34.898Z,5.63
2023-01-08T06:55:20.945Z,5.63
2023-01-08T06:55:35.886Z,5.63
2023-01-08T06:56:16.436Z,5.63
2023-01-08T06:56:52.306Z,5.80
2023-01-08T06:57:08.101Z,5.80
2023-01-08T06:57:39.292Z,5.80
2023-01-08T06:58:10.156Z,5.80
2023-01-08T06:58:41.034Z,5.80
2023-01-08T06:59:13.182Z,5.70
2023-01-08T06:59:45.168Z,5.70
2023-01-08T07:00:23.329Z,5.70
2023-01-08T07:00:45.206Z,5.70
2023-01-08T07:01:16.290Z,5.70
2023-01-08T07:01:47.386Z,5.70
2023-01-08T07:02:18.623Z,5.70
2023-01-08T07:02:49.176Z,5.70
2023-01-08T07:03:28.757Z,5.70
2023-01-08T07:03:51.227Z,5.70
2023-01-08T07:04:24.443Z,5.70
2023-01-08T07:04:55.243Z,5.70
2023-01-08T07:05:35.507Z,5.70
2023-01-08T07:05:55.293Z,5.70
2023-01-08T07:06:26.167Z,5.70
2023-01-08T07:06:57.055Z,5.70
2023-01-08T07:07:28.342Z,5.70
2023-01-08T07:07:59.295Z,5.70